METAR Data
IDs: Format: Raw Decoded Include TAF

Data at: 1342 UTC 14 Dec 2019

PAIG 141256Z AUTO 06012G20KT 10SM OVC080 03/M01 A2942 RMK AO2 SLP973 T00331011 $
PAIG 141156Z AUTO 07012G20KT 10SM OVC085 04/M02 A2944 RMK AO2 SLP979 70002 T00391017 10039 20017 58002 $
PAIG 141056Z AUTO 07008KT 10SM SCT065 OVC080 03/M02 A2945 RMK AO2 SLP982 T00331022 $
PAIG 140956Z AUTO 06007KT 10SM CLR 02/M02 A2945 RMK AO2 SLP983 T00171017 FZRANO $
PAIG 140856Z AUTO 05006KT 10SM CLR 02/M01 A2945 RMK AO2 SLP981 T00221011 400391017 53001 FZRANO $
PAIG 140756Z AUTO 06008KT 10SM CLR 02/M01 A2944 RMK AO2 SLP978 T00221006 FZRANO $
PAIG 140656Z AUTO 06007KT 10SM CLR 03/M01 A2945 RMK AO2 SLP981 T00281006 $
PAIG 140556Z AUTO 06011KT 10SM OVC100 04/00 A2945 RMK AO2 SLP980 60000 T00390000 10039 20022 58001 $
PAIG 140456Z AUTO 07013G19KT 10SM OVC055 04/01 A2945 RMK AO2 SLP982 T00390006 $
PAIG 140356Z AUTO 07008KT 10SM SCT055 BKN100 02/01 A2945 RMK AO2 SLP982 T00220011 FZRANO $
PAIG 140256Z AUTO 05008KT 10SM SCT065 OVC100 03/02 A2945 RMK AO2 RAB08E32 SLP981 P0000 60000 T00280022 53006 $
PAIG 140156Z AUTO 05014KT 10SM BKN060 OVC090 03/02 A2944 RMK AO2 SLP978 T00330022 $
PAIG 140056Z AUTO 04007KT 10SM BKN070 OVC090 03/02 A2944 RMK AO2 RAE07 SLP977 P0000 T00280022 $
PAIG 132356Z AUTO 04006KT 10SM -RA BKN035 BKN047 OVC055 03/02 A2943 RMK AO2 SLP975 P0001 60002 T00280022 10028 21011 51007 $
PAIG 132308Z AUTO 05007KT 10SM -RA FEW027 BKN034 OVC043 03/02 A2943 RMK AO2 P0001 $
PAIG 132256Z AUTO 05007KT 10SM -RA BKN028 OVC035 03/02 A2942 RMK AO2 SLP972 P0001 T00280017 $
PAIG 132253Z AUTO 05008KT 10SM -RA BKN028 BKN033 OVC050 03/02 A2942 RMK AO2 P0001 $
PAIG 132156Z AUTO 06009KT 10SM -RA FEW026 BKN031 OVC050 03/02 A2941 RMK AO2 SLP968 P0000 T00280022 $
PAIG 132056Z AUTO 03003KT 10SM -RA BKN037 OVC044 03/02 A2939 RMK AO2 RAB49 SLP962 P0000 60000 T00280017 53029 $
PAIG 132033Z AUTO 04004KT 10SM FEW005 OVC048 02/01 A2938 RMK AO2 FZRANO $
PAIG 131956Z AUTO 00000KT 10SM OVC055 01/01 A2936 RMK AO2 SLP950 T00060006 FZRANO $
PAIG 131856Z AUTO 00000KT 10SM OVC065 00/M01 A2933 RMK AO2 SLP942 T00001006 FZRANO $
PAIG 131756Z AUTO 00000KT 10SM OVC055 00/M01 A2931 RMK AO2 SLP933 60000 T00001006 10022 21017 53021 FZRANO $
PAIG 131556Z AUTO 16003KT 10SM FEW120 00/M01 A2926 RMK AO2 SLP917 T00001006 FZRANO $
PAIG 131456Z AUTO 04006KT 10SM SCT100 02/01 A2924 RMK AO2 SLP911 60000 T00170006 51011 FZRANO $
PAIG 131356Z AUTO 36003KT 10SM BKN100 01/00 A2924 RMK AO2 SLP910 T00110000 FZRANO $
PAIG 131256Z AUTO 02003KT 10SM FEW075 BKN100 OVC120 01/M01 A2923 RMK AO2 UPE04B25E27RAB16E25 SLP907 P0000 T00061011 FZRANO $
PAIG 131156Z AUTO 00000KT 10SM UP OVC055 00/M02 A2921 RMK AO2 UPB41 SLP901 P0000 60000 7//// T00001017 10006 21006 51012 FZRANO $
PAIG 131056Z AUTO 31004KT 10SM OVC060 00/M01 A2920 RMK AO2 SLP898 T00001011 FZRANO $
PAIG 130956Z AUTO 00000KT 10SM OVC060 00/M02 A2919 RMK AO2 SLP894 T00001017 FZRANO $
PAIG 130856Z AUTO 00000KT 10SM BKN065 OVC120 00/M02 A2918 RMK AO2 SLPNO T00001017 400501006 53014 FZRANO $
PAIG 130756Z AUTO 28003KT 10SM BKN060 BKN120 M01/M01 A2916 RMK AO2 SLPNO T10061011 FZRANO $
PAIG 130656Z AUTO 00000KT 10SM BKN070 00/M01 A2915 RMK AO2 SLPNO T00001006 FZRANO $
PAIG 130556Z AUTO 00000KT 10SM SCT070 BKN110 00/M02 A2914 RMK AO2 SLPNO T00001017 10039 20000 55003 FZRANO $
PAIG 130456Z AUTO 00000KT 10SM SCT075 SCT110 01/M01 A2913 RMK AO2 SLPNO T00061011 FZRANO $
PAIG 130356Z AUTO 00000KT 10SM CLR 02/M01 A2914 RMK AO2 SLPNO T00171006 FZRANO $
PAIG 130256Z AUTO 00000KT 10SM OVC080 01/00 A2915 RMK AO2 SLPNO T00110000 53001 FZRANO $
PAIG 130156Z AUTO 31003KT 10SM BKN060 02/00 A2914 RMK AO2 SLPNO T00220000 FZRANO $